Time;durP1;ratioP1;P1;durP2;ratioP2;P2;SDS_P1;SDS_P2;PMS_P1;PMS_P2;Temp;Humidity;BMP_temperature;BMP_pressure;BME280_temperature;BME280_humidity;BME280_pressure;Samples;Min_cycle;Max_cycle;Signal;HPM_P1;HPM_P2
2023/03/17 00:00:48;;;;;;;6.80;2.60;;;7.90;84.20;;;;;;6163804;23;20429;-77
2023/03/17 00:03:23;;;;;;;6.60;2.70;;;7.80;84.50;;;;;;6154101;23;20444;-77
2023/03/17 00:05:57;;;;;;;8.63;3.10;;;7.80;84.30;;;;;;6105963;23;20419;-77
2023/03/17 00:08:26;;;;;;;7.07;2.73;;;7.70;84.70;;;;;;6160466;23;20434;-78
2023/03/17 00:10:53;;;;;;;6.43;2.50;;;7.80;85.10;;;;;;6174591;23;20441;-76
2023/03/17 00:13:25;;;;;;;6.00;2.73;;;7.70;84.70;;;;;;6140294;23;20418;-77
2023/03/17 00:15:56;;;;;;;7.43;3.10;;;7.70;85.20;;;;;;6141527;23;20856;-77
2023/03/17 00:18:30;;;;;;;5.33;2.77;;;7.50;85.70;;;;;;6167816;23;20926;-77
2023/03/17 00:21:00;;;;;;;9.07;2.60;;;7.50;85.80;;;;;;6130150;23;20416;-77
2023/03/17 00:26:05;;;;;;;9.33;3.30;;;7.40;86.40;;;;;;6157115;23;20445;-77
2023/03/17 00:28:32;;;;;;;8.77;2.93;;;7.50;86.70;;;;;;6155891;23;20445;-77
2023/03/17 00:31:02;;;;;;;6.40;2.20;;;7.40;86.70;;;;;;6155812;23;20418;-77
2023/03/17 00:33:36;;;;;;;7.20;2.90;;;7.30;87.60;;;;;;6165942;23;20437;-77
2023/03/17 00:36:06;;;;;;;9.03;3.03;;;7.20;87.70;;;;;;6130318;23;20776;-77
2023/03/17 00:38:36;;;;;;;6.80;3.00;;;7.20;87.90;;;;;;6130405;23;20434;-77
2023/03/17 00:41:03;;;;;;;5.83;2.60;;;7.10;89.50;;;;;;6156091;23;20745;-77
2023/03/17 00:43:30;;;;;;;7.60;3.10;;;7.10;89.10;;;;;;6155810;23;20424;-77
2023/03/17 00:46:02;;;;;;;6.23;2.80;;;7.20;89.00;;;;;;6156061;23;20410;-77
2023/03/17 00:48:32;;;;;;;6.77;3.20;;;7.20;88.00;;;;;;6129742;23;20434;-77
2023/03/17 00:51:00;;;;;;;6.43;3.13;;;7.30;86.90;;;;;;6156009;23;20440;-77
2023/03/17 00:53:30;;;;;;;6.20;2.50;;;7.40;87.20;;;;;;6155450;23;20424;-77
2023/03/17 00:55:57;;;;;;;5.60;2.60;;;7.20;86.90;;;;;;6155233;23;20445;-77
2023/03/17 00:58:27;;;;;;;5.80;2.67;;;7.30;88.00;;;;;;6155664;23;20521;-77
2023/03/17 01:00:55;;;;;;;6.40;2.67;;;7.30;87.70;;;;;;6156598;23;20402;-77
2023/03/17 01:03:23;;;;;;;8.00;2.37;;;7.30;87.60;;;;;;6129693;23;20425;-77
2023/03/17 01:05:52;;;;;;;6.50;3.17;;;7.30;86.40;;;;;;6156782;23;20451;-78
2023/03/17 01:08:22;;;;;;;6.00;3.20;;;7.30;88.20;;;;;;6156226;23;20433;-77
2023/03/17 01:10:50;;;;;;;7.50;3.13;;;7.40;86.70;;;;;;6130256;23;20410;-78
2023/03/17 01:13:17;;;;;;;6.37;2.30;;;7.40;85.80;;;;;;6155665;23;20418;-77
2023/03/17 01:15:47;;;;;;;7.20;3.07;;;7.50;85.20;;;;;;6156108;23;20469;-77
2023/03/17 01:18:17;;;;;;;6.80;2.97;;;7.60;84.90;;;;;;6156026;23;20444;-78
2023/03/17 01:20:44;;;;;;;9.27;3.27;;;7.60;84.60;;;;;;6129446;23;20418;-77
2023/03/17 01:23:12;;;;;;;9.50;3.63;;;7.60;84.90;;;;;;6155065;23;20414;-77
2023/03/17 01:25:41;;;;;;;7.17;3.60;;;7.60;84.70;;;;;;6156508;23;20416;-77
2023/03/17 01:28:14;;;;;;;6.17;2.80;;;7.60;84.50;;;;;;6156060;23;20517;-77
2023/03/17 01:30:42;;;;;;;6.37;3.00;;;7.60;85.00;;;;;;6155495;23;20945;-77
2023/03/17 01:33:11;;;;;;;7.77;2.80;;;7.70;84.40;;;;;;6166071;23;20429;-77
2023/03/17 01:35:40;;;;;;;5.87;3.10;;;7.60;84.90;;;;;;6155937;23;20442;-77
2023/03/17 01:38:08;;;;;;;6.80;2.47;;;7.60;85.20;;;;;;6129682;23;20445;-77
2023/03/17 01:40:38;;;;;;;6.97;2.83;;;7.60;85.50;;;;;;6155636;23;20422;-77
2023/03/17 01:43:18;;;;;;;6.20;2.80;;;7.50;85.00;;;;;;6155660;23;20418;-77
2023/03/17 01:46:23;;;;;;;6.63;3.10;;;7.50;85.60;;;;;;6156529;23;20434;-77
2023/03/17 01:48:58;;;;;;;6.27;2.60;;;7.40;86.00;;;;;;6155579;23;20442;-77
2023/03/17 01:51:31;;;;;;;7.20;2.93;;;7.30;86.20;;;;;;6154498;23;20418;-77
2023/03/17 01:54:00;;;;;;;8.47;3.40;;;7.30;86.80;;;;;;6154937;23;20917;-77
2023/03/17 01:56:27;;;;;;;5.80;2.67;;;7.30;86.90;;;;;;6155243;23;20448;-77
2023/03/17 01:58:58;;;;;;;7.20;3.27;;;7.30;87.10;;;;;;6155417;23;20497;-77
2023/03/17 02:01:30;;;;;;;6.53;2.67;;;7.30;87.30;;;;;;6129571;23;20426;-77
2023/03/17 02:03:59;;;;;;;6.10;3.03;;;7.30;87.40;;;;;;6155695;23;20403;-77
2023/03/17 02:06:26;;;;;;;9.13;2.50;;;7.20;87.00;;;;;;6154603;23;20812;-77
2023/03/17 02:08:53;;;;;;;9.93;3.13;;;7.20;87.40;;;;;;6128954;23;20516;-77
2023/03/17 02:11:21;;;;;;;8.80;3.17;;;7.20;87.50;;;;;;6128745;23;20906;-77
2023/03/17 02:13:49;;;;;;;7.90;3.30;;;7.20;87.10;;;;;;6155468;23;20414;-77
2023/03/17 02:16:18;;;;;;;9.53;3.60;;;7.20;87.40;;;;;;6129040;23;20958;-77
2023/03/17 02:18:45;;;;;;;6.30;2.90;;;7.20;87.30;;;;;;6154770;23;20469;-77
2023/03/17 02:21:37;;;;;;;6.63;3.33;;;7.20;87.50;;;;;;6154601;23;20492;-77
2023/03/17 02:24:07;;;;;;;5.63;2.60;;;7.00;88.70;;;;;;6155532;23;20403;-77
2023/03/17 02:26:36;;;;;;;6.07;2.90;;;6.90;90.20;;;;;;6154988;23;20395;-77
2023/03/17 02:29:05;;;;;;;16.23;3.53;;;6.80;90.50;;;;;;6155054;23;20440;-77
2023/03/17 02:31:33;;;;;;;7.63;3.20;;;6.80;90.20;;;;;;6154318;23;20413;-77
2023/03/17 02:34:01;;;;;;;6.30;2.93;;;6.70;90.10;;;;;;6155210;23;20420;-77
2023/03/17 02:36:30;;;;;;;5.80;3.20;;;6.60;90.10;;;;;;6155362;23;20434;-77
2023/03/17 02:38:57;;;;;;;8.70;3.20;;;6.60;90.60;;;;;;6155202;23;20434;-77
2023/03/17 02:41:26;;;;;;;7.10;3.10;;;6.60;90.50;;;;;;6153864;23;20417;-77
2023/03/17 02:43:53;;;;;;;6.40;3.40;;;6.50;91.00;;;;;;6155191;23;20421;-78
2023/03/17 02:46:22;;;;;;;7.53;3.43;;;6.60;90.40;;;;;;6154698;23;20417;-77
2023/03/17 02:48:52;;;;;;;6.70;3.17;;;6.60;90.40;;;;;;6128272;23;20441;-77
2023/03/17 02:51:19;;;;;;;5.60;2.60;;;6.50;90.50;;;;;;6154485;23;20405;-77
2023/03/17 02:53:48;;;;;;;7.60;3.00;;;6.50;90.90;;;;;;6128492;23;20418;-78
2023/03/17 02:56:15;;;;;;;6.93;3.63;;;6.60;90.20;;;;;;6154420;23;20437;-77
2023/03/17 02:58:42;;;;;;;7.43;3.53;;;6.50;90.70;;;;;;6154855;23;20434;-77
2023/03/17 03:01:11;;;;;;;6.97;3.60;;;6.60;90.10;;;;;;6154178;23;20504;-77
2023/03/17 03:03:39;;;;;;;8.40;3.60;;;6.60;90.10;;;;;;6154214;23;20413;-77
2023/03/17 03:06:06;;;;;;;8.87;3.30;;;6.60;90.30;;;;;;6129346;23;20497;-77
2023/03/17 03:08:34;;;;;;;5.97;3.10;;;6.60;90.40;;;;;;6154263;23;20437;-77
2023/03/17 03:11:03;;;;;;;6.90;2.70;;;6.60;90.10;;;;;;6128135;23;20422;-77
2023/03/17 03:13:31;;;;;;;8.90;3.40;;;6.70;90.10;;;;;;6154412;23;20449;-77
2023/03/17 03:15:58;;;;;;;6.53;3.43;;;6.60;90.10;;;;;;6154484;23;20418;-77
2023/03/17 03:18:25;;;;;;;6.43;2.90;;;6.70;90.10;;;;;;6154451;23;20434;-77
2023/03/17 03:20:53;;;;;;;11.70;3.50;;;6.70;90.10;;;;;;6152881;23;20414;-78
2023/03/17 03:23:21;;;;;;;6.13;2.70;;;6.70;90.10;;;;;;6154769;23;20454;-78
2023/03/17 03:25:48;;;;;;;6.97;3.70;;;6.70;90.10;;;;;;6154196;23;20910;-78
2023/03/17 03:28:17;;;;;;;10.23;3.80;;;6.60;90.10;;;;;;6154495;23;20441;-78
2023/03/17 03:30:45;;;;;;;6.93;2.93;;;6.70;90.10;;;;;;6154453;23;20502;-78
2023/03/17 03:33:17;;;;;;;10.00;3.60;;;6.60;90.10;;;;;;6154366;23;20414;-78
2023/03/17 03:35:44;;;;;;;8.80;3.50;;;6.60;90.40;;;;;;6154770;23;20402;-78
2023/03/17 03:38:14;;;;;;;5.57;2.93;;;6.50;90.00;;;;;;6154251;23;20974;-78
2023/03/17 03:40:41;;;;;;;7.10;3.83;;;6.60;90.40;;;;;;6154279;23;20493;-81
2023/03/17 03:43:08;;;;;;;6.63;3.40;;;6.60;90.10;;;;;;6154062;23;20414;-78
2023/03/17 03:45:37;;;;;;;6.93;3.30;;;6.60;90.10;;;;;;6154596;23;20420;-78
2023/03/17 03:48:04;;;;;;;8.27;3.63;;;6.60;90.10;;;;;;6154396;23;20436;-77
2023/03/17 03:50:35;;;;;;;8.13;3.40;;;6.60;90.10;;;;;;6154416;23;20414;-80
2023/03/17 03:53:02;;;;;;;6.97;3.70;;;6.50;90.30;;;;;;6154260;23;21138;-78
2023/03/17 03:55:32;;;;;;;11.03;3.13;;;6.40;90.70;;;;;;6154396;23;20422;-77
2023/03/17 03:57:58;;;;;;;7.43;3.30;;;6.50;90.40;;;;;;6153947;23;20448;-78
2023/03/17 04:00:26;;;;;;;8.47;3.73;;;6.40;90.50;;;;;;6153973;23;20413;-78
2023/03/17 04:02:55;;;;;;;8.10;3.03;;;6.40;91.10;;;;;;6154238;23;20529;-78
2023/03/17 04:05:22;;;;;;;6.50;2.80;;;6.40;90.70;;;;;;6154488;23;20422;-78
2023/03/17 04:07:49;;;;;;;7.50;3.53;;;6.50;90.80;;;;;;6154378;23;20736;-78
2023/03/17 04:10:16;;;;;;;7.03;3.43;;;6.40;90.70;;;;;;6153859;23;20792;-78
2023/03/17 04:12:44;;;;;;;8.37;3.67;;;6.40;90.70;;;;;;6153930;23;20413;-78
2023/03/17 04:15:16;;;;;;;8.43;3.70;;;6.40;90.50;;;;;;6154214;23;20442;-78
2023/03/17 04:17:43;;;;;;;7.50;3.70;;;6.50;90.20;;;;;;6153952;23;20445;-77
2023/03/17 04:20:13;;;;;;;7.73;3.77;;;6.50;90.10;;;;;;6127636;23;20422;-78
2023/03/17 04:22:41;;;;;;;9.73;3.73;;;6.50;90.00;;;;;;6127981;23;20910;-77
2023/03/17 04:25:10;;;;;;;11.40;4.03;;;6.50;90.00;;;;;;6154425;23;20757;-77
2023/03/17 04:27:41;;;;;;;6.50;3.43;;;6.50;90.40;;;;;;6154329;23;20465;-78
2023/03/17 04:30:10;;;;;;;9.33;3.83;;;6.50;90.00;;;;;;6154605;23;20485;-77
2023/03/17 04:32:37;;;;;;;8.30;3.37;;;6.40;90.50;;;;;;6127713;23;20429;-77
2023/03/17 04:35:07;;;;;;;8.27;3.73;;;6.40;90.60;;;;;;6128733;23;20414;-77
2023/03/17 04:37:37;;;;;;;6.90;3.27;;;6.50;90.50;;;;;;6154145;23;20445;-77
2023/03/17 04:40:07;;;;;;;7.40;4.30;;;6.40;90.50;;;;;;6128024;23;20418;-78
2023/03/17 04:42:35;;;;;;;7.67;3.00;;;6.50;90.40;;;;;;6154259;23;20756;-78
2023/03/17 04:45:02;;;;;;;14.90;3.67;;;6.50;90.30;;;;;;6154510;23;20518;-78
2023/03/17 04:47:29;;;;;;;6.70;3.43;;;6.60;90.10;;;;;;6154310;23;20410;-78
2023/03/17 04:49:56;;;;;;;7.20;3.80;;;6.50;90.30;;;;;;6154076;23;20414;-78
2023/03/17 04:52:23;;;;;;;7.63;3.93;;;6.50;90.00;;;;;;6154190;23;20418;-78
2023/03/17 04:54:52;;;;;;;8.47;4.03;;;6.40;90.80;;;;;;6127726;23;20414;-78
2023/03/17 04:57:21;;;;;;;6.43;3.70;;;6.40;90.60;;;;;;6128125;23;20777;-78
2023/03/17 04:59:48;;;;;;;6.10;3.53;;;6.40;90.60;;;;;;6155846;23;20748;-78
2023/03/17 05:02:14;;;;;;;11.67;3.73;;;6.40;90.60;;;;;;6156045;23;20414;-78
2023/03/17 05:04:42;;;;;;;6.73;3.70;;;6.40;91.10;;;;;;6155696;23;20414;-77
2023/03/17 05:07:09;;;;;;;9.63;4.00;;;6.40;91.30;;;;;;6156144;23;20414;-78
2023/03/17 05:09:36;;;;;;;6.50;3.20;;;6.30;91.50;;;;;;6155632;23;20434;-77
2023/03/17 05:12:07;;;;;;;6.40;3.83;;;6.30;91.80;;;;;;6155888;23;20413;-78
2023/03/17 05:14:34;;;;;;;7.90;4.03;;;6.20;91.90;;;;;;6156148;23;20765;-78
2023/03/17 05:17:04;;;;;;;8.23;3.17;;;6.10;92.00;;;;;;6155524;23;20469;-78
2023/03/17 05:19:32;;;;;;;7.20;4.43;;;6.20;92.10;;;;;;6155673;23;20769;-78
2023/03/17 05:22:00;;;;;;;8.90;5.07;;;6.20;92.20;;;;;;6155546;23;20442;-78
2023/03/17 05:24:39;;;;;;;10.97;4.87;;;6.10;92.50;;;;;;6156073;23;20500;-78
2023/03/17 05:27:08;;;;;;;10.47;4.37;;;6.00;92.60;;;;;;6155882;23;20766;-78
2023/03/17 05:29:39;;;;;;;10.07;3.80;;;6.10;93.00;;;;;;6129209;23;20438;-77
2023/03/17 05:32:06;;;;;;;8.23;4.87;;;6.00;93.00;;;;;;6154967;23;20485;-78
2023/03/17 05:34:34;;;;;;;9.40;5.03;;;6.00;93.10;;;;;;6155379;23;20497;-78
2023/03/17 05:37:02;;;;;;;8.13;3.80;;;6.00;93.20;;;;;;6155731;23;20461;-77
2023/03/17 05:39:38;;;;;;;7.97;4.03;;;5.90;93.30;;;;;;6154712;23;20509;-78
2023/03/17 05:42:07;;;;;;;12.57;5.57;;;6.00;93.50;;;;;;6154341;23;20449;-77
2023/03/17 05:44:34;;;;;;;8.57;4.53;;;5.90;93.30;;;;;;6155020;23;20418;-77
2023/03/17 05:47:01;;;;;;;10.07;4.00;;;6.00;93.10;;;;;;6165069;23;20406;-78
2023/03/17 05:49:31;;;;;;;9.50;4.23;;;6.10;93.00;;;;;;6155481;23;20440;-78
2023/03/17 05:51:59;;;;;;;9.10;4.63;;;6.00;92.90;;;;;;6165193;23;20418;-78
2023/03/17 05:54:32;;;;;;;6.90;4.20;;;6.20;93.10;;;;;;6155296;23;20414;-78
2023/03/17 05:56:59;;;;;;;7.43;3.97;;;6.20;93.10;;;;;;6155043;23;20501;-78
2023/03/17 05:59:28;;;;;;;7.10;3.87;;;6.10;93.10;;;;;;6155181;23;20513;-78
2023/03/17 06:01:55;;;;;;;15.30;4.97;;;6.20;92.90;;;;;;6155211;23;20421;-78
2023/03/17 06:04:23;;;;;;;9.90;4.43;;;6.20;92.90;;;;;;6155048;23;20425;-78
2023/03/17 06:06:50;;;;;;;6.83;4.00;;;6.20;93.00;;;;;;6154836;23;20432;-77
2023/03/17 06:09:18;;;;;;;9.73;3.97;;;6.20;92.70;;;;;;6104296;23;20778;-78
2023/03/17 06:11:45;;;;;;;7.57;4.40;;;6.30;92.70;;;;;;6154619;23;20418;-77
2023/03/17 06:14:12;;;;;;;13.60;4.80;;;6.30;92.70;;;;;;6128767;23;20417;-78
2023/03/17 06:16:40;;;;;;;9.97;3.90;;;6.30;92.50;;;;;;6154492;23;20504;-78
2023/03/17 06:19:07;;;;;;;7.07;4.17;;;6.40;92.60;;;;;;6154541;23;20448;-78
2023/03/17 06:21:37;;;;;;;7.37;3.20;;;6.40;93.10;;;;;;6154590;23;20414;-77
2023/03/17 06:24:05;;;;;;;7.40;3.70;;;6.50;92.90;;;;;;6155035;23;20496;-78
2023/03/17 06:26:32;;;;;;;8.80;3.70;;;6.50;93.00;;;;;;6154541;23;20418;-77
2023/03/17 06:29:00;;;;;;;8.33;4.53;;;6.50;92.50;;;;;;6154968;23;20436;-77
2023/03/17 06:31:27;;;;;;;10.30;4.57;;;6.60;92.80;;;;;;6154860;23;20414;-77
2023/03/17 06:33:56;;;;;;;9.13;3.90;;;6.70;92.40;;;;;;6154827;23;20424;-77
2023/03/17 06:36:23;;;;;;;7.03;4.13;;;6.70;92.50;;;;;;6154862;23;20414;-77
2023/03/17 06:38:50;;;;;;;7.83;3.83;;;6.80;92.40;;;;;;6154242;23;20437;-78
2023/03/17 06:41:17;;;;;;;7.03;3.37;;;6.90;92.10;;;;;;6128651;23;20932;-78
2023/03/17 06:43:45;;;;;;;7.20;4.10;;;7.00;91.60;;;;;;6128449;23;20421;-78
2023/03/17 06:46:11;;;;;;;7.60;4.30;;;7.10;91.20;;;;;;6155030;23;20805;-78
2023/03/17 06:48:39;;;;;;;7.60;4.70;;;7.10;90.90;;;;;;6155124;23;20430;-78
2023/03/17 06:51:08;;;;;;;11.80;4.27;;;7.30;91.20;;;;;;6154133;23;20421;-77
2023/03/17 06:53:36;;;;;;;7.90;4.33;;;7.30;91.00;;;;;;6153288;23;20973;-77
2023/03/17 06:56:03;;;;;;;12.47;4.10;;;7.40;90.80;;;;;;6121384;23;20457;-77
2023/03/17 06:58:34;;;;;;;7.33;4.20;;;7.50;90.50;;;;;;6122759;23;20451;-77
2023/03/17 07:01:01;;;;;;;8.77;4.00;;;7.60;91.10;;;;;;6098462;23;20418;-77
2023/03/17 07:03:29;;;;;;;8.10;3.83;;;7.60;90.50;;;;;;6124802;23;20907;-77
2023/03/17 07:05:57;;;;;;;11.00;4.40;;;7.70;90.50;;;;;;6125003;23;20419;-77
2023/03/17 07:08:25;;;;;;;10.90;4.10;;;7.90;90.60;;;;;;6124768;23;20494;-77
2023/03/17 07:10:56;;;;;;;8.30;4.17;;;8.00;90.60;;;;;;6123930;23;20470;-77
2023/03/17 07:13:23;;;;;;;10.63;4.07;;;8.00;90.60;;;;;;6124087;23;20974;-77
2023/03/17 07:15:50;;;;;;;8.90;4.70;;;8.20;89.80;;;;;;6123883;23;20732;-77
2023/03/17 07:18:18;;;;;;;8.30;4.50;;;8.30;90.50;;;;;;6123241;23;20453;-77
2023/03/17 07:20:47;;;;;;;14.03;3.90;;;8.40;88.80;;;;;;6122528;23;20414;-78
2023/03/17 07:23:16;;;;;;;10.80;3.90;;;8.60;89.00;;;;;;6124738;23;20415;-78
2023/03/17 07:25:46;;;;;;;8.97;3.93;;;8.70;88.50;;;;;;6124320;23;20422;-77
2023/03/17 07:28:14;;;;;;;10.30;4.00;;;8.90;88.60;;;;;;6124216;23;20462;-77
2023/03/17 07:30:45;;;;;;;7.20;3.50;;;9.00;87.90;;;;;;6123044;23;20415;-78
2023/03/17 07:33:13;;;;;;;8.60;3.57;;;9.00;86.30;;;;;;6098742;23;20814;-77
2023/03/17 07:35:40;;;;;;;10.53;4.10;;;9.10;87.50;;;;;;6124190;23;20419;-78
2023/03/17 07:38:07;;;;;;;7.20;3.97;;;9.20;87.00;;;;;;6097339;23;20447;-77
2023/03/17 07:40:34;;;;;;;7.10;3.70;;;9.40;85.10;;;;;;6097771;23;20761;-77
2023/03/17 07:43:05;;;;;;;8.60;3.67;;;9.40;85.20;;;;;;6124782;23;20498;-78
2023/03/17 07:45:35;;;;;;;8.00;2.97;;;9.50;85.20;;;;;;6124516;23;20449;-77
2023/03/17 07:48:03;;;;;;;13.60;4.80;;;9.60;83.90;;;;;;6124185;23;20435;-77
2023/03/17 07:50:34;;;;;;;12.13;4.07;;;9.60;84.00;;;;;;6132836;23;20494;-77
2023/03/17 07:53:03;;;;;;;7.83;3.60;;;9.60;85.20;;;;;;6121480;23;20430;-77
2023/03/17 07:55:31;;;;;;;6.30;3.00;;;9.60;84.40;;;;;;6097112;23;20831;-77
2023/03/17 07:57:59;;;;;;;8.83;4.07;;;9.70;83.50;;;;;;6124073;23;20474;-78
2023/03/17 08:00:29;;;;;;;6.07;3.60;;;9.80;85.40;;;;;;6132052;23;20507;-77
2023/03/17 08:02:57;;;;;;;9.43;4.00;;;9.80;83.10;;;;;;6123654;23;20418;-77
2023/03/17 08:05:26;;;;;;;7.30;3.30;;;9.80;84.20;;;;;;6097478;23;20433;-77
2023/03/17 08:07:54;;;;;;;6.20;3.67;;;9.90;83.90;;;;;;6124350;23;20513;-77
2023/03/17 08:10:21;;;;;;;7.50;3.57;;;10.00;83.70;;;;;;6097992;23;20419;-77
2023/03/17 08:12:52;;;;;;;11.13;3.67;;;10.00;82.40;;;;;;6123870;23;20415;-78
2023/03/17 08:15:20;;;;;;;8.17;3.70;;;10.10;82.90;;;;;;6123212;23;20399;-77
2023/03/17 08:17:50;;;;;;;6.67;3.73;;;10.20;82.70;;;;;;6098002;23;20466;-77
2023/03/17 08:20:18;;;;;;;7.37;3.50;;;10.30;83.50;;;;;;6123394;23;20425;-77
2023/03/17 08:22:46;;;;;;;9.10;3.63;;;10.40;82.60;;;;;;6123468;23;20489;-83
2023/03/17 08:25:13;;;;;;;8.30;3.70;;;10.50;81.70;;;;;;6124330;23;20414;-77
2023/03/17 08:27:42;;;;;;;7.43;3.83;;;10.60;80.60;;;;;;6097288;23;20517;-77
2023/03/17 08:30:12;;;;;;;6.20;3.33;;;10.60;80.70;;;;;;6123463;23;20489;-77
2023/03/17 08:32:40;;;;;;;7.03;3.97;;;10.70;81.00;;;;;;6123810;23;20509;-77
2023/03/17 08:35:13;;;;;;;6.53;3.77;;;10.70;80.20;;;;;;6127799;23;20917;-77
2023/03/17 08:37:42;;;;;;;6.63;3.37;;;10.80;79.20;;;;;;6129978;23;20439;-78
2023/03/17 08:45:17;;;;;;;9.10;3.63;;;10.90;77.80;;;;;;6177529;23;20515;-92
2023/03/17 08:47:44;;;;;;;8.23;3.60;;;11.00;77.90;;;;;;6162658;23;20417;-92
2023/03/17 08:50:17;;;;;;;8.40;3.37;;;11.10;78.00;;;;;;6161799;23;20410;-92
2023/03/17 08:52:44;;;;;;;7.33;3.60;;;11.10;78.00;;;;;;6161514;23;20469;-92
2023/03/17 08:55:11;;;;;;;6.63;3.23;;;11.30;76.80;;;;;;6161889;23;20469;-92
2023/03/17 08:57:38;;;;;;;9.10;3.60;;;11.40;78.30;;;;;;6161144;23;20433;-94
2023/03/17 09:00:10;;;;;;;7.03;3.27;;;11.70;76.20;;;;;;6162132;23;20424;-92
2023/03/17 09:02:37;;;;;;;10.55;3.65;;;12.10;77.50;;;;;;6170502;23;20476;-93
2023/03/17 09:05:04;;;;;;;7.83;3.43;;;12.60;74.40;;;;;;6161703;23;20201;-93
2023/03/17 09:07:32;;;;;;;8.07;3.50;;;13.00;71.80;;;;;;6161094;23;20420;-91
2023/03/17 09:09:59;;;;;;;8.00;3.67;;;13.40;73.10;;;;;;6161221;23;20487;-93
2023/03/17 09:12:26;;;;;;;6.90;3.17;;;13.50;71.70;;;;;;6161533;23;20916;-93
2023/03/17 09:14:53;;;;;;;9.10;4.70;;;13.60;71.30;;;;;;6161573;23;20435;-92
2023/03/17 09:17:20;;;;;;;9.60;3.60;;;13.80;68.40;;;;;;6171146;23;20422;-92
2023/03/17 09:19:47;;;;;;;9.00;3.60;;;14.00;69.00;;;;;;6161669;23;20439;-93
2023/03/17 09:22:16;;;;;;;9.37;3.80;;;13.90;69.70;;;;;;6161379;23;20482;-94
2023/03/17 09:24:44;;;;;;;7.47;3.53;;;14.00;69.30;;;;;;6161380;23;20951;-93
2023/03/17 09:27:12;;;;;;;7.17;3.10;;;13.90;66.10;;;;;;6161651;23;20419;-93
2023/03/17 09:29:40;;;;;;;7.70;3.07;;;13.90;67.90;;;;;;6161633;23;20417;-93
2023/03/17 09:32:07;;;;;;;8.77;3.83;;;13.90;68.20;;;;;;6170987;23;20426;-93
2023/03/17 09:34:34;;;;;;;9.33;3.70;;;13.90;66.30;;;;;;6161232;23;20436;-92
2023/03/17 09:37:01;;;;;;;7.63;3.70;;;13.90;66.90;;;;;;6161387;23;20737;-92
2023/03/17 09:39:28;;;;;;;8.27;3.20;;;14.00;67.10;;;;;;6161455;23;20435;-93
2023/03/17 09:42:07;;;;;;;12.97;3.30;;;14.00;67.10;;;;;;6160795;23;20415;-93
2023/03/17 09:44:56;;;;;;;8.47;3.10;;;14.50;66.10;;;;;;6160974;23;20476;-93
2023/03/17 09:47:46;;;;;;;11.53;4.37;;;15.00;65.50;;;;;;6161248;23;20414;-93
2023/03/17 09:50:18;;;;;;;8.60;2.80;;;15.30;62.00;;;;;;6161304;23;20395;-93
2023/03/17 09:53:21;;;;;;;7.80;2.97;;;15.60;61.90;;;;;;6161093;23;20404;-92
2023/03/17 09:55:56;;;;;;;6.20;2.77;;;15.60;60.50;;;;;;6170977;23;20437;-93
2023/03/17 09:58:47;;;;;;;10.00;3.07;;;15.90;62.10;;;;;;6170597;23;20438;-93
2023/03/17 10:01:26;;;;;;;8.53;3.27;;;16.10;60.40;;;;;;6171268;23;20911;-93
2023/03/17 10:04:05;;;;;;;7.73;2.60;;;16.00;58.10;;;;;;6135193;23;20468;-93
2023/03/17 10:06:42;;;;;;;14.67;3.47;;;15.90;60.10;;;;;;6172042;23;20417;-93
2023/03/17 10:09:52;;;;;;;7.83;2.77;;;15.90;58.50;;;;;;6171683;23;20476;-93
2023/03/17 10:13:09;;;;;;;10.33;3.43;;;15.90;59.70;;;;;;6171185;23;20418;-94
2023/03/17 10:15:45;;;;;;;8.03;3.20;;;15.50;57.70;;;;;;6170877;23;20938;-93
2023/03/17 10:18:34;;;;;;;11.90;3.20;;;15.70;57.90;;;;;;6170471;23;20417;-94
2023/03/17 10:23:56;;;;;;;12.43;2.70;;;15.90;59.50;;;;;;6159162;23;20896;-94
2023/03/17 10:26:30;;;;;;;6.30;2.20;;;15.90;57.50;;;;;;6170441;23;20439;-93
2023/03/17 10:28:58;;;;;;;7.40;2.87;;;15.90;57.20;;;;;;6158842;23;20391;-92
2023/03/17 10:31:31;;;;;;;6.37;2.70;;;15.90;58.10;;;;;;6160053;23;20410;-93
2023/03/17 10:34:12;;;;;;;5.90;2.33;;;15.90;58.70;;;;;;6169007;23;20790;-93
2023/03/17 10:36:41;;;;;;;10.10;3.00;;;16.10;60.20;;;;;;6160312;23;20399;-93
2023/03/17 10:39:11;;;;;;;5.53;2.03;;;16.60;57.50;;;;;;6159289;23;20445;-93
2023/03/17 10:41:40;;;;;;;5.90;2.43;;;17.40;56.10;;;;;;6169613;23;20414;-93
2023/03/17 10:44:09;;;;;;;7.53;2.47;;;17.70;51.10;;;;;;6170445;23;20495;-93
2023/03/17 10:46:38;;;;;;;8.70;2.67;;;18.50;51.80;;;;;;6159412;23;20478;-93
2023/03/17 10:49:09;;;;;;;7.63;2.27;;;19.40;49.30;;;;;;6160332;23;20434;-94
2023/03/17 10:51:39;;;;;;;6.77;2.73;;;19.70;44.10;;;;;;6160772;23;20404;-95
2023/03/17 10:54:09;;;;;;;8.03;2.83;;;20.20;44.60;;;;;;6171663;23;20443;-93
2023/03/17 10:56:40;;;;;;;5.70;2.70;;;20.30;40.00;;;;;;6161223;23;20401;-93
2023/03/17 10:59:15;;;;;;;10.70;2.77;;;20.10;38.30;;;;;;6171273;23;20426;-94
2023/03/17 11:01:47;;;;;;;7.33;2.60;;;20.20;37.50;;;;;;6160791;23;20405;-94
2023/03/17 11:04:29;;;;;;;7.70;2.33;;;20.40;38.40;;;;;;6161953;23;20488;-94
2023/03/17 11:06:57;;;;;;;7.93;2.63;;;20.70;37.30;;;;;;6161613;23;20435;-93
2023/03/17 11:09:27;;;;;;;9.47;2.57;;;20.40;33.00;;;;;;6161324;23;20439;-94
2023/03/17 11:12:02;;;;;;;11.00;2.80;;;20.40;35.70;;;;;;6170551;23;20412;-94
2023/03/17 11:14:29;;;;;;;7.63;2.50;;;20.70;35.90;;;;;;6161221;23;20491;-94
2023/03/17 11:17:24;;;;;;;;;;;;;;;;;;;;;
2023/03/17 11:20:14;;;;;;;6.40;2.43;;;20.50;30.10;;;;;;6171004;23;20420;-95
2023/03/17 11:23:14;;;;;;;7.93;2.40;;;20.90;32.00;;;;;;6171413;23;20419;-94
2023/03/17 11:26:13;;;;;;;5.70;2.87;;;21.10;27.80;;;;;;6171071;23;20482;-93
2023/03/17 11:29:08;;;;;;;8.93;2.93;;;21.40;28.00;;;;;;6170505;23;20468;-93
2023/03/17 11:31:48;;;;;;;6.57;2.60;;;21.50;28.10;;;;;;6170801;23;20410;-94
2023/03/17 11:34:39;;;;;;;9.87;2.70;;;21.50;26.80;;;;;;6171125;23;20414;-94
2023/03/17 11:37:18;;;;;;;6.57;2.73;;;21.20;24.80;;;;;;6171092;23;20476;-93
2023/03/17 11:40:01;;;;;;;6.50;2.67;;;21.40;26.90;;;;;;6160902;23;20394;-94
2023/03/17 11:42:58;;;;;;;6.60;2.37;;;21.40;27.30;;;;;;6172723;23;20424;-94
2023/03/17 11:45:46;;;;;;;8.30;2.50;;;21.70;25.80;;;;;;6170243;23;20448;-93
2023/03/17 11:54:26;;;;;;;7.97;2.27;;;21.50;24.40;;;;;;6155298;23;20420;-79
2023/03/17 11:56:56;;;;;;;6.90;2.27;;;20.90;27.50;;;;;;6098514;23;20503;-79
2023/03/17 11:59:34;;;;;;;6.00;1.93;;;20.00;27.10;;;;;;6124134;23;20441;-78
2023/03/17 12:02:15;;;;;;;6.47;2.43;;;19.90;29.20;;;;;;6124380;23;20444;-79
2023/03/17 12:04:51;;;;;;;6.77;2.40;;;19.60;28.30;;;;;;6134262;23;20427;-79
2023/03/17 12:07:23;;;;;;;7.37;2.27;;;19.50;28.60;;;;;;6124703;23;20421;-79
2023/03/17 12:10:00;;;;;;;6.53;2.17;;;19.50;31.90;;;;;;6126439;23;20429;-77
2023/03/17 12:12:32;;;;;;;5.80;2.07;;;19.50;31.50;;;;;;6135950;23;20465;-78
2023/03/17 12:15:04;;;;;;;5.53;2.03;;;19.40;29.90;;;;;;6100505;23;20514;-78
2023/03/17 12:17:37;;;;;;;6.47;2.17;;;19.70;32.50;;;;;;6101172;23;20422;-78
2023/03/17 12:20:16;;;;;;;7.80;2.70;;;19.90;28.80;;;;;;6126525;23;20426;-78
2023/03/17 12:22:53;;;;;;;7.10;2.20;;;19.80;30.20;;;;;;6126312;23;20405;-79
2023/03/17 12:25:25;;;;;;;7.00;2.27;;;19.50;29.60;;;;;;6126660;23;20402;-78
2023/03/17 12:28:00;;;;;;;7.80;2.40;;;19.60;34.90;;;;;;6126315;23;20938;-79
2023/03/17 12:30:33;;;;;;;8.90;2.50;;;19.60;33.40;;;;;;6126209;23;20434;-78
2023/03/17 12:33:11;;;;;;;7.87;2.53;;;19.40;31.70;;;;;;6125501;23;20425;-79
2023/03/17 12:35:38;;;;;;;7.73;2.13;;;19.30;32.20;;;;;;6126536;23;20398;-79
2023/03/17 12:38:12;;;;;;;9.63;2.47;;;19.30;31.50;;;;;;6135680;23;20445;-78
2023/03/17 12:40:54;;;;;;;9.23;2.67;;;19.30;33.40;;;;;;6110024;23;20444;-78
2023/03/17 12:43:46;;;;;;;6.90;2.20;;;19.40;31.60;;;;;;6135759;23;20764;-78
2023/03/17 12:46:33;;;;;;;6.03;2.10;;;19.30;31.60;;;;;;6126011;23;20949;-79
2023/03/17 12:49:46;;;;;;;7.47;2.10;;;19.40;31.60;;;;;;6125706;23;20437;-78
2023/03/17 12:52:24;;;;;;;7.43;1.67;;;19.70;34.10;;;;;;6007839;23;20739;-78
2023/03/17 12:54:53;;;;;;;7.40;2.67;;;19.70;32.80;;;;;;5984431;23;20478;-78
2023/03/17 12:57:23;;;;;;;5.50;2.03;;;19.60;30.30;;;;;;6081330;23;20433;-79
2023/03/17 12:59:57;;;;;;;5.33;1.97;;;19.40;32.80;;;;;;6126146;23;20445;-78
2023/03/17 13:02:32;;;;;;;6.20;2.20;;;19.30;31.80;;;;;;6125351;23;20920;-78
2023/03/17 13:05:05;;;;;;;7.70;2.30;;;19.20;29.70;;;;;;6126291;23;20397;-79
2023/03/17 13:07:37;;;;;;;10.30;3.10;;;19.20;29.10;;;;;;6099901;23;20500;-78
2023/03/17 13:10:37;;;;;;;7.10;2.43;;;19.50;30.20;;;;;;6125989;23;20426;-78
2023/03/17 13:13:24;;;;;;;9.50;2.03;;;19.40;28.20;;;;;;6120742;23;20444;-79
2023/03/17 13:15:59;;;;;;;6.50;2.10;;;19.40;31.50;;;;;;6125081;23;20771;-79
2023/03/17 13:18:52;;;;;;;8.20;2.00;;;19.70;34.20;;;;;;6121102;23;20198;-82
2023/03/17 13:21:26;;;;;;;6.50;2.13;;;19.90;34.10;;;;;;6125138;23;20402;-82
2023/03/17 13:23:56;;;;;;;5.40;2.10;;;20.50;30.50;;;;;;6099076;23;20923;-82
2023/03/17 13:26:51;;;;;;;7.10;2.63;;;20.80;29.10;;;;;;6124313;23;20453;-84
2023/03/17 13:29:39;;;;;;;7.10;2.33;;;21.30;25.80;;;;;;6125093;23;20782;-85
2023/03/17 13:32:39;;;;;;;5.87;1.90;;;21.50;26.70;;;;;;6122817;23;20879;-84